sensor_id;sensor_type;location;lat;lon;timestamp;temperature;humidity
2839;DHT22;1427;48.510;9.060;2023-12-14T00:01:40;5.50;99.90
2839;DHT22;1427;48.510;9.060;2023-12-14T00:04:08;5.40;99.90
2839;DHT22;1427;48.510;9.060;2023-12-14T00:06:38;5.40;99.90
2839;DHT22;1427;48.510;9.060;2023-12-14T00:09:06;5.40;99.90
2839;DHT22;1427;48.510;9.060;2023-12-14T00:11:37;5.50;99.90
2839;DHT22;1427;48.510;9.060;2023-12-14T00:14:06;5.50;99.90
2839;DHT22;1427;48.510;9.060;2023-12-14T00:16:34;5.60;99.90
2839;DHT22;1427;48.510;9.060;2023-12-14T00:19:02;5.60;99.90
2839;DHT22;1427;48.510;9.060;2023-12-14T00:21:30;5.60;99.90
2839;DHT22;1427;48.510;9.060;2023-12-14T00:24:00;5.60;99.90
2839;DHT22;1427;48.510;9.060;2023-12-14T00:26:28;5.60;99.90
2839;DHT22;1427;48.510;9.060;2023-12-14T00:28:56;5.60;99.90
2839;DHT22;1427;48.510;9.060;2023-12-14T00:31:28;5.60;99.90
2839;DHT22;1427;48.510;9.060;2023-12-14T00:33:56;5.80;99.90
2839;DHT22;1427;48.510;9.060;2023-12-14T00:36:24;5.80;99.90
2839;DHT22;1427;48.510;9.060;2023-12-14T00:38:52;5.70;99.90
2839;DHT22;1427;48.510;9.060;2023-12-14T00:41:23;5.50;99.90
2839;DHT22;1427;48.510;9.060;2023-12-14T00:43:51;5.40;99.90
2839;DHT22;1427;48.510;9.060;2023-12-14T00:46:19;5.40;99.90
2839;DHT22;1427;48.510;9.060;2023-12-14T00:48:47;5.40;99.90
2839;DHT22;1427;48.510;9.060;2023-12-14T00:51:15;5.50;99.90
2839;DHT22;1427;48.510;9.060;2023-12-14T00:53:44;5.50;99.90
2839;DHT22;1427;48.510;9.060;2023-12-14T00:56:12;5.60;99.90
2839;DHT22;1427;48.510;9.060;2023-12-14T00:58:41;5.60;99.90
2839;DHT22;1427;48.510;9.060;2023-12-14T01:01:10;5.70;99.90
2839;DHT22;1427;48.510;9.060;2023-12-14T01:03:38;5.60;99.90
2839;DHT22;1427;48.510;9.060;2023-12-14T01:06:06;5.70;99.90
2839;DHT22;1427;48.510;9.060;2023-12-14T01:08:34;5.80;99.90
2839;DHT22;1427;48.510;9.060;2023-12-14T01:11:03;5.80;99.90
2839;DHT22;1427;48.510;9.060;2023-12-14T01:13:31;5.80;99.90
2839;DHT22;1427;48.510;9.060;2023-12-14T01:16:01;5.80;99.90
2839;DHT22;1427;48.510;9.060;2023-12-14T01:18:29;5.70;99.90
2839;DHT22;1427;48.510;9.060;2023-12-14T01:20:57;5.60;99.90
2839;DHT22;1427;48.510;9.060;2023-12-14T01:23:25;5.60;99.90
2839;DHT22;1427;48.510;9.060;2023-12-14T01:25:53;5.60;99.90
2839;DHT22;1427;48.510;9.060;2023-12-14T01:28:21;5.50;99.90
2839;DHT22;1427;48.510;9.060;2023-12-14T01:30:49;5.50;99.90
2839;DHT22;1427;48.510;9.060;2023-12-14T01:33:19;5.60;99.90
2839;DHT22;1427;48.510;9.060;2023-12-14T01:35:47;5.50;99.90
2839;DHT22;1427;48.510;9.060;2023-12-14T01:38:15;5.60;99.90
2839;DHT22;1427;48.510;9.060;2023-12-14T01:40:44;5.60;99.90
2839;DHT22;1427;48.510;9.060;2023-12-14T01:43:12;5.70;99.90
2839;DHT22;1427;48.510;9.060;2023-12-14T01:45:40;5.70;99.90
2839;DHT22;1427;48.510;9.060;2023-12-14T01:48:08;5.80;99.90
2839;DHT22;1427;48.510;9.060;2023-12-14T01:50:38;5.90;99.90
2839;DHT22;1427;48.510;9.060;2023-12-14T01:53:06;5.90;99.90
2839;DHT22;1427;48.510;9.060;2023-12-14T01:55:34;5.90;99.90
2839;DHT22;1427;48.510;9.060;2023-12-14T01:58:02;6.10;99.90
2839;DHT22;1427;48.510;9.060;2023-12-14T02:00:46;6.00;99.90
2839;DHT22;1427;48.510;9.060;2023-12-14T02:03:17;6.00;99.90
2839;DHT22;1427;48.510;9.060;2023-12-14T02:05:46;6.00;99.90
2839;DHT22;1427;48.510;9.060;2023-12-14T02:08:14;6.00;99.90
2839;DHT22;1427;48.510;9.060;2023-12-14T02:10:43;5.90;99.90
2839;DHT22;1427;48.510;9.060;2023-12-14T02:13:11;6.00;99.90
2839;DHT22;1427;48.510;9.060;2023-12-14T02:15:39;6.00;99.90
2839;DHT22;1427;48.510;9.060;2023-12-14T02:18:07;6.10;99.90
2839;DHT22;1427;48.510;9.060;2023-12-14T02:20:35;6.10;99.90
2839;DHT22;1427;48.510;9.060;2023-12-14T02:23:05;6.20;99.90
2839;DHT22;1427;48.510;9.060;2023-12-14T02:25:33;6.10;99.90
2839;DHT22;1427;48.510;9.060;2023-12-14T02:28:01;6.00;99.90
2839;DHT22;1427;48.510;9.060;2023-12-14T02:30:29;5.90;99.90
2839;DHT22;1427;48.510;9.060;2023-12-14T02:32:57;6.00;99.90
2839;DHT22;1427;48.510;9.060;2023-12-14T02:35:25;6.10;99.90
2839;DHT22;1427;48.510;9.060;2023-12-14T02:37:54;6.00;99.90
2839;DHT22;1427;48.510;9.060;2023-12-14T02:40:23;6.00;99.90
2839;DHT22;1427;48.510;9.060;2023-12-14T02:42:51;6.00;99.90
2839;DHT22;1427;48.510;9.060;2023-12-14T02:45:19;6.00;99.90
2839;DHT22;1427;48.510;9.060;2023-12-14T02:47:47;6.00;99.90
2839;DHT22;1427;48.510;9.060;2023-12-14T02:50:16;6.00;99.90
2839;DHT22;1427;48.510;9.060;2023-12-14T02:52:56;5.90;99.90
2839;DHT22;1427;48.510;9.060;2023-12-14T02:55:28;5.70;99.90
2839;DHT22;1427;48.510;9.060;2023-12-14T02:57:56;5.90;99.90
2839;DHT22;1427;48.510;9.060;2023-12-14T03:00:24;5.70;99.90
2839;DHT22;1427;48.510;9.060;2023-12-14T03:02:52;5.70;99.90
2839;DHT22;1427;48.510;9.060;2023-12-14T03:05:20;5.60;99.90
2839;DHT22;1427;48.510;9.060;2023-12-14T03:07:48;5.60;99.90
2839;DHT22;1427;48.510;9.060;2023-12-14T03:10:16;5.60;99.90
2839;DHT22;1427;48.510;9.060;2023-12-14T03:12:46;5.80;99.90
2839;DHT22;1427;48.510;9.060;2023-12-14T03:15:18;5.90;99.90
2839;DHT22;1427;48.510;9.060;2023-12-14T03:17:46;5.90;99.90
2839;DHT22;1427;48.510;9.060;2023-12-14T03:20:14;5.80;99.90
2839;DHT22;1427;48.510;9.060;2023-12-14T03:22:42;5.80;99.90
2839;DHT22;1427;48.510;9.060;2023-12-14T03:25:10;5.80;99.90
2839;DHT22;1427;48.510;9.060;2023-12-14T03:27:38;5.80;99.90
2839;DHT22;1427;48.510;9.060;2023-12-14T03:30:08;5.90;99.90
2839;DHT22;1427;48.510;9.060;2023-12-14T03:32:37;5.90;99.90
2839;DHT22;1427;48.510;9.060;2023-12-14T03:35:06;5.90;99.90
2839;DHT22;1427;48.510;9.060;2023-12-14T03:37:35;5.90;99.90
2839;DHT22;1427;48.510;9.060;2023-12-14T03:40:04;5.80;99.90
2839;DHT22;1427;48.510;9.060;2023-12-14T03:42:33;5.80;99.90
2839;DHT22;1427;48.510;9.060;2023-12-14T03:45:01;5.80;99.90
2839;DHT22;1427;48.510;9.060;2023-12-14T03:47:31;5.80;99.90
2839;DHT22;1427;48.510;9.060;2023-12-14T03:49:59;5.80;99.90
2839;DHT22;1427;48.510;9.060;2023-12-14T03:52:27;5.80;99.90
2839;DHT22;1427;48.510;9.060;2023-12-14T03:54:58;5.90;99.90
2839;DHT22;1427;48.510;9.060;2023-12-14T03:57:26;5.90;99.90
2839;DHT22;1427;48.510;9.060;2023-12-14T03:59:54;5.90;99.90
2839;DHT22;1427;48.510;9.060;2023-12-14T04:02:22;5.90;99.90
2839;DHT22;1427;48.510;9.060;2023-12-14T04:04:52;5.90;99.90
2839;DHT22;1427;48.510;9.060;2023-12-14T04:07:20;5.90;99.90
2839;DHT22;1427;48.510;9.060;2023-12-14T04:09:48;6.00;99.90
2839;DHT22;1427;48.510;9.060;2023-12-14T04:12:16;5.90;99.90
2839;DHT22;1427;48.510;9.060;2023-12-14T04:14:45;5.90;99.90
2839;DHT22;1427;48.510;9.060;2023-12-14T04:17:14;5.90;99.90
2839;DHT22;1427;48.510;9.060;2023-12-14T04:19:42;6.00;99.90
2839;DHT22;1427;48.510;9.060;2023-12-14T04:22:11;6.10;99.90
2839;DHT22;1427;48.510;9.060;2023-12-14T04:24:39;5.90;99.90
2839;DHT22;1427;48.510;9.060;2023-12-14T04:27:07;5.90;99.90
2839;DHT22;1427;48.510;9.060;2023-12-14T04:29:35;6.00;99.90
2839;DHT22;1427;48.510;9.060;2023-12-14T04:32:05;5.90;99.90
2839;DHT22;1427;48.510;9.060;2023-12-14T04:34:33;5.90;99.90
2839;DHT22;1427;48.510;9.060;2023-12-14T04:37:01;5.90;99.90
2839;DHT22;1427;48.510;9.060;2023-12-14T04:39:30;5.90;99.90
2839;DHT22;1427;48.510;9.060;2023-12-14T04:41:58;6.10;99.90
2839;DHT22;1427;48.510;9.060;2023-12-14T04:44:26;6.10;99.90
2839;DHT22;1427;48.510;9.060;2023-12-14T04:46:54;6.10;99.90
2839;DHT22;1427;48.510;9.060;2023-12-14T04:49:22;6.10;99.90
2839;DHT22;1427;48.510;9.060;2023-12-14T04:51:50;6.10;99.90
2839;DHT22;1427;48.510;9.060;2023-12-14T04:54:19;6.00;99.90
2839;DHT22;1427;48.510;9.060;2023-12-14T04:56:48;6.10;99.90
2839;DHT22;1427;48.510;9.060;2023-12-14T04:59:16;6.10;99.90
2839;DHT22;1427;48.510;9.060;2023-12-14T05:01:44;6.00;99.90
2839;DHT22;1427;48.510;9.060;2023-12-14T05:04:12;6.00;99.90
2839;DHT22;1427;48.510;9.060;2023-12-14T05:06:41;6.00;99.90
2839;DHT22;1427;48.510;9.060;2023-12-14T05:09:09;6.10;99.90
2839;DHT22;1427;48.510;9.060;2023-12-14T05:11:39;6.20;99.90
2839;DHT22;1427;48.510;9.060;2023-12-14T05:14:09;6.20;99.90
2839;DHT22;1427;48.510;9.060;2023-12-14T05:16:37;6.10;99.90
2839;DHT22;1427;48.510;9.060;2023-12-14T05:19:06;6.10;99.90
2839;DHT22;1427;48.510;9.060;2023-12-14T05:21:34;6.20;99.90
2839;DHT22;1427;48.510;9.060;2023-12-14T05:24:02;6.10;99.90
2839;DHT22;1427;48.510;9.060;2023-12-14T05:26:30;6.20;99.90
2839;DHT22;1427;48.510;9.060;2023-12-14T05:28:58;6.20;99.90
2839;DHT22;1427;48.510;9.060;2023-12-14T05:31:28;6.20;99.90
2839;DHT22;1427;48.510;9.060;2023-12-14T05:33:56;6.20;99.90
2839;DHT22;1427;48.510;9.060;2023-12-14T05:36:24;6.20;99.90
2839;DHT22;1427;48.510;9.060;2023-12-14T05:38:52;6.30;99.90
2839;DHT22;1427;48.510;9.060;2023-12-14T05:41:20;6.30;99.90
2839;DHT22;1427;48.510;9.060;2023-12-14T05:43:48;6.30;99.90
2839;DHT22;1427;48.510;9.060;2023-12-14T05:46:22;6.20;99.90
2839;DHT22;1427;48.510;9.060;2023-12-14T05:48:52;6.20;99.90
2839;DHT22;1427;48.510;9.060;2023-12-14T05:51:27;6.30;99.90
2839;DHT22;1427;48.510;9.060;2023-12-14T05:53:55;6.30;99.90
2839;DHT22;1427;48.510;9.060;2023-12-14T05:56:25;6.20;99.90
2839;DHT22;1427;48.510;9.060;2023-12-14T05:58:53;6.30;99.90
2839;DHT22;1427;48.510;9.060;2023-12-14T06:01:23;6.30;99.90
2839;DHT22;1427;48.510;9.060;2023-12-14T06:03:53;6.50;99.90
2839;DHT22;1427;48.510;9.060;2023-12-14T06:06:21;6.60;99.90
2839;DHT22;1427;48.510;9.060;2023-12-14T06:08:49;6.60;99.90
2839;DHT22;1427;48.510;9.060;2023-12-14T06:11:17;6.60;99.90
2839;DHT22;1427;48.510;9.060;2023-12-14T06:13:46;6.40;99.90
2839;DHT22;1427;48.510;9.060;2023-12-14T06:16:14;6.40;99.90
2839;DHT22;1427;48.510;9.060;2023-12-14T06:18:42;6.50;99.90
2839;DHT22;1427;48.510;9.060;2023-12-14T06:21:12;6.50;99.90
2839;DHT22;1427;48.510;9.060;2023-12-14T06:23:40;6.40;99.90
2839;DHT22;1427;48.510;9.060;2023-12-14T06:26:08;6.40;99.90
2839;DHT22;1427;48.510;9.060;2023-12-14T06:28:36;6.40;99.90
2839;DHT22;1427;48.510;9.060;2023-12-14T06:31:05;6.40;99.90
2839;DHT22;1427;48.510;9.060;2023-12-14T06:33:34;6.40;99.90
2839;DHT22;1427;48.510;9.060;2023-12-14T06:36:03;6.30;99.90
2839;DHT22;1427;48.510;9.060;2023-12-14T06:38:33;6.20;99.90
2839;DHT22;1427;48.510;9.060;2023-12-14T06:41:01;6.00;99.90
2839;DHT22;1427;48.510;9.060;2023-12-14T06:43:30;6.10;99.90
2839;DHT22;1427;48.510;9.060;2023-12-14T06:45:58;6.10;99.90
2839;DHT22;1427;48.510;9.060;2023-12-14T06:48:26;6.20;99.90
2839;DHT22;1427;48.510;9.060;2023-12-14T06:50:54;6.20;99.90
2839;DHT22;1427;48.510;9.060;2023-12-14T06:53:22;6.30;99.90
2839;DHT22;1427;48.510;9.060;2023-12-14T06:55:52;6.30;99.90
2839;DHT22;1427;48.510;9.060;2023-12-14T06:58:20;6.20;99.90
2839;DHT22;1427;48.510;9.060;2023-12-14T07:00:48;6.20;99.90
2839;DHT22;1427;48.510;9.060;2023-12-14T07:03:16;6.20;99.90
2839;DHT22;1427;48.510;9.060;2023-12-14T07:05:44;6.10;99.90
2839;DHT22;1427;48.510;9.060;2023-12-14T07:08:12;6.10;99.90
2839;DHT22;1427;48.510;9.060;2023-12-14T07:10:41;6.20;99.90
2839;DHT22;1427;48.510;9.060;2023-12-14T07:13:11;6.20;99.90
2839;DHT22;1427;48.510;9.060;2023-12-14T07:15:39;6.20;99.90
2839;DHT22;1427;48.510;9.060;2023-12-14T07:18:07;6.10;99.90
2839;DHT22;1427;48.510;9.060;2023-12-14T07:20:35;6.10;99.90
2839;DHT22;1427;48.510;9.060;2023-12-14T07:23:03;6.30;99.90
2839;DHT22;1427;48.510;9.060;2023-12-14T07:25:32;6.30;99.90
2839;DHT22;1427;48.510;9.060;2023-12-14T07:28:00;6.20;99.90
2839;DHT22;1427;48.510;9.060;2023-12-14T07:30:29;6.40;99.90
2839;DHT22;1427;48.510;9.060;2023-12-14T07:32:57;6.20;99.90
2839;DHT22;1427;48.510;9.060;2023-12-14T07:35:25;6.20;99.90
2839;DHT22;1427;48.510;9.060;2023-12-14T07:37:53;6.30;99.90
2839;DHT22;1427;48.510;9.060;2023-12-14T07:40:21;6.30;99.90
2839;DHT22;1427;48.510;9.060;2023-12-14T07:42:49;6.30;99.90
2839;DHT22;1427;48.510;9.060;2023-12-14T07:45:17;6.30;99.90
2839;DHT22;1427;48.510;9.060;2023-12-14T07:47:47;6.40;99.90
2839;DHT22;1427;48.510;9.060;2023-12-14T07:50:15;6.40;99.90
2839;DHT22;1427;48.510;9.060;2023-12-14T07:52:44;6.60;99.90
2839;DHT22;1427;48.510;9.060;2023-12-14T07:55:12;6.40;99.90
2839;DHT22;1427;48.510;9.060;2023-12-14T07:57:41;6.40;99.90
2839;DHT22;1427;48.510;9.060;2023-12-14T08:00:10;6.40;99.90
2839;DHT22;1427;48.510;9.060;2023-12-14T08:02:38;6.10;99.90
2839;DHT22;1427;48.510;9.060;2023-12-14T08:05:08;6.30;99.90
2839;DHT22;1427;48.510;9.060;2023-12-14T08:07:36;6.30;99.90
2839;DHT22;1427;48.510;9.060;2023-12-14T08:10:04;6.40;99.90
2839;DHT22;1427;48.510;9.060;2023-12-14T08:12:35;6.40;99.90
2839;DHT22;1427;48.510;9.060;2023-12-14T08:15:05;6.50;99.90
2839;DHT22;1427;48.510;9.060;2023-12-14T08:17:35;6.40;99.90
2839;DHT22;1427;48.510;9.060;2023-12-14T08:20:04;6.40;99.90
2839;DHT22;1427;48.510;9.060;2023-12-14T08:22:37;6.60;99.90
2839;DHT22;1427;48.510;9.060;2023-12-14T08:25:12;6.50;99.90
2839;DHT22;1427;48.510;9.060;2023-12-14T08:27:41;6.50;99.90
2839;DHT22;1427;48.510;9.060;2023-12-14T08:30:12;6.40;99.90
2839;DHT22;1427;48.510;9.060;2023-12-14T08:32:40;6.40;99.90
2839;DHT22;1427;48.510;9.060;2023-12-14T08:35:09;6.50;99.90
2839;DHT22;1427;48.510;9.060;2023-12-14T08:37:38;6.30;99.90
2839;DHT22;1427;48.510;9.060;2023-12-14T08:40:07;6.30;99.90
2839;DHT22;1427;48.510;9.060;2023-12-14T08:42:36;6.40;99.90
2839;DHT22;1427;48.510;9.060;2023-12-14T08:45:05;6.50;99.90
2839;DHT22;1427;48.510;9.060;2023-12-14T08:47:37;6.50;99.90
2839;DHT22;1427;48.510;9.060;2023-12-14T08:50:06;6.30;99.90
2839;DHT22;1427;48.510;9.060;2023-12-14T08:52:35;6.30;99.90
2839;DHT22;1427;48.510;9.060;2023-12-14T08:55:06;6.40;99.90
2839;DHT22;1427;48.510;9.060;2023-12-14T08:57:35;6.50;99.90
2839;DHT22;1427;48.510;9.060;2023-12-14T09:00:04;6.40;99.90
2839;DHT22;1427;48.510;9.060;2023-12-14T09:02:35;6.50;99.90
2839;DHT22;1427;48.510;9.060;2023-12-14T09:05:04;6.60;99.90
2839;DHT22;1427;48.510;9.060;2023-12-14T09:07:33;6.50;99.90
2839;DHT22;1427;48.510;9.060;2023-12-14T09:10:01;6.50;99.90
2839;DHT22;1427;48.510;9.060;2023-12-14T09:12:30;6.60;99.90
2839;DHT22;1427;48.510;9.060;2023-12-14T09:14:59;6.50;99.90
2839;DHT22;1427;48.510;9.060;2023-12-14T09:17:27;6.80;99.90
2839;DHT22;1427;48.510;9.060;2023-12-14T09:20:04;6.70;99.90
2839;DHT22;1427;48.510;9.060;2023-12-14T09:22:32;6.70;99.90
2839;DHT22;1427;48.510;9.060;2023-12-14T09:25:01;6.70;99.90
2839;DHT22;1427;48.510;9.060;2023-12-14T09:27:31;6.70;99.90
2839;DHT22;1427;48.510;9.060;2023-12-14T09:30:01;6.70;99.90
2839;DHT22;1427;48.510;9.060;2023-12-14T09:32:29;6.80;99.90
2839;DHT22;1427;48.510;9.060;2023-12-14T09:34:57;6.90;99.90
2839;DHT22;1427;48.510;9.060;2023-12-14T09:37:26;6.90;99.90
2839;DHT22;1427;48.510;9.060;2023-12-14T09:39:54;7.00;99.90
2839;DHT22;1427;48.510;9.060;2023-12-14T09:42:22;7.00;99.90
2839;DHT22;1427;48.510;9.060;2023-12-14T09:44:52;7.20;99.90
2839;DHT22;1427;48.510;9.060;2023-12-14T09:47:21;7.30;99.90
2839;DHT22;1427;48.510;9.060;2023-12-14T09:49:50;7.40;99.90
2839;DHT22;1427;48.510;9.060;2023-12-14T09:52:19;7.60;99.90
2839;DHT22;1427;48.510;9.060;2023-12-14T09:54:47;7.60;99.90
2839;DHT22;1427;48.510;9.060;2023-12-14T09:57:18;7.80;99.90
2839;DHT22;1427;48.510;9.060;2023-12-14T09:59:52;8.10;99.90
2839;DHT22;1427;48.510;9.060;2023-12-14T10:02:25;8.20;99.90
2839;DHT22;1427;48.510;9.060;2023-12-14T10:04:53;8.30;99.90
2839;DHT22;1427;48.510;9.060;2023-12-14T10:07:22;8.20;99.90
2839;DHT22;1427;48.510;9.060;2023-12-14T10:09:52;8.00;99.90
2839;DHT22;1427;48.510;9.060;2023-12-14T10:12:22;7.80;99.90
2839;DHT22;1427;48.510;9.060;2023-12-14T10:15:01;8.10;99.90
2839;DHT22;1427;48.510;9.060;2023-12-14T10:17:33;7.90;99.90
2839;DHT22;1427;48.510;9.060;2023-12-14T10:20:01;7.90;99.90
2839;DHT22;1427;48.510;9.060;2023-12-14T10:22:31;7.80;99.90
2839;DHT22;1427;48.510;9.060;2023-12-14T10:24:59;7.90;99.90
2839;DHT22;1427;48.510;9.060;2023-12-14T10:27:28;7.90;99.90
2839;DHT22;1427;48.510;9.060;2023-12-14T10:29:56;7.90;99.90
2839;DHT22;1427;48.510;9.060;2023-12-14T10:32:25;8.00;99.90
2839;DHT22;1427;48.510;9.060;2023-12-14T10:34:54;8.00;99.90
2839;DHT22;1427;48.510;9.060;2023-12-14T10:37:23;8.00;99.90
2839;DHT22;1427;48.510;9.060;2023-12-14T10:39:54;8.00;99.90
2839;DHT22;1427;48.510;9.060;2023-12-14T10:42:25;7.70;99.90
2839;DHT22;1427;48.510;9.060;2023-12-14T10:44:56;7.70;99.90
2839;DHT22;1427;48.510;9.060;2023-12-14T10:47:46;7.60;99.90
2839;DHT22;1427;48.510;9.060;2023-12-14T10:50:15;7.60;99.90
2839;DHT22;1427;48.510;9.060;2023-12-14T10:52:44;7.60;99.90
2839;DHT22;1427;48.510;9.060;2023-12-14T10:55:18;7.80;99.90
2839;DHT22;1427;48.510;9.060;2023-12-14T10:57:48;7.80;99.90
2839;DHT22;1427;48.510;9.060;2023-12-14T11:00:19;7.80;99.90
2839;DHT22;1427;48.510;9.060;2023-12-14T11:02:48;7.80;99.90
2839;DHT22;1427;48.510;9.060;2023-12-14T11:05:17;7.80;99.90
2839;DHT22;1427;48.510;9.060;2023-12-14T11:07:51;7.90;99.90
2839;DHT22;1427;48.510;9.060;2023-12-14T11:10:22;8.00;99.90
2839;DHT22;1427;48.510;9.060;2023-12-14T11:12:56;8.00;99.90
2839;DHT22;1427;48.510;9.060;2023-12-14T11:15:25;8.00;99.90
2839;DHT22;1427;48.510;9.060;2023-12-14T11:18:20;7.90;99.90
2839;DHT22;1427;48.510;9.060;2023-12-14T11:20:50;7.90;99.90
2839;DHT22;1427;48.510;9.060;2023-12-14T11:23:27;7.80;99.90
2839;DHT22;1427;48.510;9.060;2023-12-14T11:25:58;8.00;99.90
2839;DHT22;1427;48.510;9.060;2023-12-14T11:28:27;8.10;99.90
2839;DHT22;1427;48.510;9.060;2023-12-14T11:30:57;8.70;99.90
2839;DHT22;1427;48.510;9.060;2023-12-14T11:33:26;9.30;99.90
2839;DHT22;1427;48.510;9.060;2023-12-14T11:35:56;9.50;99.90
2839;DHT22;1427;48.510;9.060;2023-12-14T11:38:24;9.60;99.90
2839;DHT22;1427;48.510;9.060;2023-12-14T11:40:53;10.50;99.90
2839;DHT22;1427;48.510;9.060;2023-12-14T11:43:21;12.30;99.90
2839;DHT22;1427;48.510;9.060;2023-12-14T11:45:50;13.40;99.90
2839;DHT22;1427;48.510;9.060;2023-12-14T11:48:18;14.90;99.90
2839;DHT22;1427;48.510;9.060;2023-12-14T11:50:49;17.70;99.90
2839;DHT22;1427;48.510;9.060;2023-12-14T11:53:18;19.50;99.90
2839;DHT22;1427;48.510;9.060;2023-12-14T11:55:46;19.40;99.90
2839;DHT22;1427;48.510;9.060;2023-12-14T11:58:16;18.50;99.90
2839;DHT22;1427;48.510;9.060;2023-12-14T12:00:44;16.70;99.90
2839;DHT22;1427;48.510;9.060;2023-12-14T12:03:17;15.00;99.90
2839;DHT22;1427;48.510;9.060;2023-12-14T12:05:49;13.50;99.90
2839;DHT22;1427;48.510;9.060;2023-12-14T12:08:19;12.20;99.90
2839;DHT22;1427;48.510;9.060;2023-12-14T12:10:48;11.30;99.90
2839;DHT22;1427;48.510;9.060;2023-12-14T12:13:19;10.60;99.90
2839;DHT22;1427;48.510;9.060;2023-12-14T12:15:48;10.10;99.90
2839;DHT22;1427;48.510;9.060;2023-12-14T12:18:17;10.10;99.90
2839;DHT22;1427;48.510;9.060;2023-12-14T12:20:45;10.00;99.90
2839;DHT22;1427;48.510;9.060;2023-12-14T12:23:15;9.90;99.90
2839;DHT22;1427;48.510;9.060;2023-12-14T12:25:44;9.60;99.90
2839;DHT22;1427;48.510;9.060;2023-12-14T12:28:12;9.50;99.90
2839;DHT22;1427;48.510;9.060;2023-12-14T12:30:40;9.30;99.90
2839;DHT22;1427;48.510;9.060;2023-12-14T12:33:09;9.30;99.90
2839;DHT22;1427;48.510;9.060;2023-12-14T12:35:37;9.10;99.90
2839;DHT22;1427;48.510;9.060;2023-12-14T12:38:06;9.00;99.90
2839;DHT22;1427;48.510;9.060;2023-12-14T12:40:35;8.90;99.90
2839;DHT22;1427;48.510;9.060;2023-12-14T12:43:03;8.80;99.90
2839;DHT22;1427;48.510;9.060;2023-12-14T12:45:32;8.90;99.90
2839;DHT22;1427;48.510;9.060;2023-12-14T12:48:00;8.80;99.90
2839;DHT22;1427;48.510;9.060;2023-12-14T12:50:30;8.80;99.90
2839;DHT22;1427;48.510;9.060;2023-12-14T12:53:01;8.90;99.90
2839;DHT22;1427;48.510;9.060;2023-12-14T12:55:29;9.00;99.90
2839;DHT22;1427;48.510;9.060;2023-12-14T12:57:58;9.10;99.90
2839;DHT22;1427;48.510;9.060;2023-12-14T13:00:31;9.10;99.90
2839;DHT22;1427;48.510;9.060;2023-12-14T13:03:02;9.10;99.90
2839;DHT22;1427;48.510;9.060;2023-12-14T13:05:30;9.10;99.90
2839;DHT22;1427;48.510;9.060;2023-12-14T13:07:59;9.20;99.90
2839;DHT22;1427;48.510;9.060;2023-12-14T13:10:27;9.20;99.90
2839;DHT22;1427;48.510;9.060;2023-12-14T13:13:00;9.20;99.90
2839;DHT22;1427;48.510;9.060;2023-12-14T13:15:28;9.10;99.90
2839;DHT22;1427;48.510;9.060;2023-12-14T13:17:57;9.10;99.90
2839;DHT22;1427;48.510;9.060;2023-12-14T13:20:26;9.10;99.90
2839;DHT22;1427;48.510;9.060;2023-12-14T13:22:54;8.90;99.90
2839;DHT22;1427;48.510;9.060;2023-12-14T13:25:22;8.90;99.90
2839;DHT22;1427;48.510;9.060;2023-12-14T13:27:52;8.80;99.90
2839;DHT22;1427;48.510;9.060;2023-12-14T13:30:22;8.90;99.90
2839;DHT22;1427;48.510;9.060;2023-12-14T13:32:50;8.90;99.90
2839;DHT22;1427;48.510;9.060;2023-12-14T13:35:21;8.90;99.90
2839;DHT22;1427;48.510;9.060;2023-12-14T13:37:49;10.10;99.90
2839;DHT22;1427;48.510;9.060;2023-12-14T13:40:17;11.60;99.90
2839;DHT22;1427;48.510;9.060;2023-12-14T13:42:45;11.20;99.90
2839;DHT22;1427;48.510;9.060;2023-12-14T13:45:30;10.70;99.90
2839;DHT22;1427;48.510;9.060;2023-12-14T13:47:58;10.20;99.90
2839;DHT22;1427;48.510;9.060;2023-12-14T13:50:27;9.80;99.90
2839;DHT22;1427;48.510;9.060;2023-12-14T13:52:55;9.50;99.90
2839;DHT22;1427;48.510;9.060;2023-12-14T13:55:24;9.20;99.90
2839;DHT22;1427;48.510;9.060;2023-12-14T13:57:52;9.00;99.90
2839;DHT22;1427;48.510;9.060;2023-12-14T14:00:24;9.00;99.90
2839;DHT22;1427;48.510;9.060;2023-12-14T14:02:54;8.90;99.90
2839;DHT22;1427;48.510;9.060;2023-12-14T14:05:22;8.80;99.90
2839;DHT22;1427;48.510;9.060;2023-12-14T14:07:51;8.70;99.90
2839;DHT22;1427;48.510;9.060;2023-12-14T14:10:19;8.70;99.90
2839;DHT22;1427;48.510;9.060;2023-12-14T14:12:47;8.70;99.90
2839;DHT22;1427;48.510;9.060;2023-12-14T14:15:16;8.70;99.90
2839;DHT22;1427;48.510;9.060;2023-12-14T14:17:44;8.70;99.90
2839;DHT22;1427;48.510;9.060;2023-12-14T14:20:16;8.70;99.90
2839;DHT22;1427;48.510;9.060;2023-12-14T14:22:44;8.60;99.90
2839;DHT22;1427;48.510;9.060;2023-12-14T14:25:12;8.40;99.90
2839;DHT22;1427;48.510;9.060;2023-12-14T14:27:40;8.30;99.90
2839;DHT22;1427;48.510;9.060;2023-12-14T14:30:09;8.20;99.90
2839;DHT22;1427;48.510;9.060;2023-12-14T14:32:37;8.20;99.90
2839;DHT22;1427;48.510;9.060;2023-12-14T14:35:06;8.30;99.90
2839;DHT22;1427;48.510;9.060;2023-12-14T14:37:36;8.20;99.90
2839;DHT22;1427;48.510;9.060;2023-12-14T14:40:06;8.20;99.90
2839;DHT22;1427;48.510;9.060;2023-12-14T14:42:34;8.20;99.90
2839;DHT22;1427;48.510;9.060;2023-12-14T14:45:03;8.30;99.90
2839;DHT22;1427;48.510;9.060;2023-12-14T14:47:34;8.20;99.90
2839;DHT22;1427;48.510;9.060;2023-12-14T14:50:03;8.10;99.90
2839;DHT22;1427;48.510;9.060;2023-12-14T14:52:35;8.20;99.90
2839;DHT22;1427;48.510;9.060;2023-12-14T14:55:04;8.20;99.90
2839;DHT22;1427;48.510;9.060;2023-12-14T14:57:32;8.20;99.90
2839;DHT22;1427;48.510;9.060;2023-12-14T15:00:00;8.20;99.90
2839;DHT22;1427;48.510;9.060;2023-12-14T15:02:29;8.10;99.90
2839;DHT22;1427;48.510;9.060;2023-12-14T15:04:57;8.10;99.90
2839;DHT22;1427;48.510;9.060;2023-12-14T15:07:25;8.00;99.90
2839;DHT22;1427;48.510;9.060;2023-12-14T15:09:54;8.00;99.90
2839;DHT22;1427;48.510;9.060;2023-12-14T15:12:22;7.90;99.90
2839;DHT22;1427;48.510;9.060;2023-12-14T15:14:50;7.90;99.90
2839;DHT22;1427;48.510;9.060;2023-12-14T15:17:18;7.90;99.90
2839;DHT22;1427;48.510;9.060;2023-12-14T15:19:47;7.80;99.90
2839;DHT22;1427;48.510;9.060;2023-12-14T15:22:19;7.70;99.90
2839;DHT22;1427;48.510;9.060;2023-12-14T15:24:47;7.80;99.90
2839;DHT22;1427;48.510;9.060;2023-12-14T15:27:17;7.70;99.90
2839;DHT22;1427;48.510;9.060;2023-12-14T15:29:45;7.70;99.90
2839;DHT22;1427;48.510;9.060;2023-12-14T15:32:14;7.60;99.90
2839;DHT22;1427;48.510;9.060;2023-12-14T15:34:42;7.60;99.90
2839;DHT22;1427;48.510;9.060;2023-12-14T15:37:10;7.60;99.90
2839;DHT22;1427;48.510;9.060;2023-12-14T15:39:38;7.60;99.90
2839;DHT22;1427;48.510;9.060;2023-12-14T15:42:06;7.70;99.90
2839;DHT22;1427;48.510;9.060;2023-12-14T15:44:35;7.70;99.90
2839;DHT22;1427;48.510;9.060;2023-12-14T15:47:04;7.80;99.90
2839;DHT22;1427;48.510;9.060;2023-12-14T15:49:32;7.70;99.90
2839;DHT22;1427;48.510;9.060;2023-12-14T15:52:00;7.60;99.90
2839;DHT22;1427;48.510;9.060;2023-12-14T15:54:28;7.50;99.90
2839;DHT22;1427;48.510;9.060;2023-12-14T15:56:56;7.60;99.90
2839;DHT22;1427;48.510;9.060;2023-12-14T15:59:25;7.60;99.90
2839;DHT22;1427;48.510;9.060;2023-12-14T16:01:55;7.70;99.90
2839;DHT22;1427;48.510;9.060;2023-12-14T16:04:23;7.70;99.90
2839;DHT22;1427;48.510;9.060;2023-12-14T16:06:51;7.80;99.90
2839;DHT22;1427;48.510;9.060;2023-12-14T16:09:19;7.80;99.90
2839;DHT22;1427;48.510;9.060;2023-12-14T16:11:48;7.90;99.90
2839;DHT22;1427;48.510;9.060;2023-12-14T16:14:16;7.70;99.90
2839;DHT22;1427;48.510;9.060;2023-12-14T16:16:44;7.60;99.90
2839;DHT22;1427;48.510;9.060;2023-12-14T16:19:14;7.60;99.90
2839;DHT22;1427;48.510;9.060;2023-12-14T16:21:42;7.60;99.90
2839;DHT22;1427;48.510;9.060;2023-12-14T16:24:10;7.70;99.90
2839;DHT22;1427;48.510;9.060;2023-12-14T16:26:38;7.60;99.90
2839;DHT22;1427;48.510;9.060;2023-12-14T16:29:09;7.60;99.90